Time;durP1;ratioP1;P1;durP2;ratioP2;P2;SDS_P1;SDS_P2;PMS_P1;PMS_P2;Temp;Humidity;BMP_temperature;BMP_pressure;BME280_temperature;BME280_humidity;BME280_pressure;Samples;Min_cycle;Max_cycle;Signal;HPM_P1;HPM_P2
2022/06/26 00:01:33;;;;;;;16.20;12.60;;;18.20;99.90;;;;;;4980885;28;20730;-80
2022/06/26 00:04:02;;;;;;;15.98;12.35;;;18.20;99.90;;;;;;4959684;28;20124;-81
2022/06/26 00:06:27;;;;;;;14.25;12.73;;;18.20;99.90;;;;;;4962332;28;20402;-81
2022/06/26 00:08:53;;;;;;;16.23;12.45;;;18.20;99.90;;;;;;4961879;28;20058;-81
2022/06/26 00:11:19;;;;;;;16.55;11.73;;;18.20;99.90;;;;;;4962221;28;20057;-81
2022/06/26 00:13:45;;;;;;;15.45;12.77;;;18.20;99.90;;;;;;4977713;28;20054;-81
2022/06/26 00:16:10;;;;;;;13.85;12.02;;;18.10;99.90;;;;;;4961746;28;20034;-81
2022/06/26 00:18:36;;;;;;;19.33;13.40;;;18.10;99.90;;;;;;4979366;28;20491;-81
2022/06/26 00:21:02;;;;;;;15.15;13.13;;;18.10;99.90;;;;;;4979821;28;21512;-81
2022/06/26 00:23:28;;;;;;;16.00;13.57;;;18.10;99.90;;;;;;4961862;28;20065;-81
2022/06/26 00:25:53;;;;;;;17.80;13.43;;;18.10;99.90;;;;;;4957573;28;20046;-81
2022/06/26 00:28:19;;;;;;;18.85;13.20;;;18.10;99.90;;;;;;4980956;28;20054;-81
2022/06/26 00:30:45;;;;;;;15.73;13.05;;;18.10;99.90;;;;;;4976748;28;20399;-81
2022/06/26 00:33:11;;;;;;;16.08;13.45;;;18.00;99.90;;;;;;4970456;28;20054;-81
2022/06/26 00:35:37;;;;;;;15.77;13.60;;;18.00;99.90;;;;;;4962316;28;20866;-81
2022/06/26 00:38:02;;;;;;;18.30;14.43;;;18.10;99.90;;;;;;4961871;28;20050;-81
2022/06/26 00:40:29;;;;;;;16.58;14.85;;;18.00;99.90;;;;;;4960783;28;20262;-81
2022/06/26 00:42:55;;;;;;;17.27;14.13;;;18.00;99.90;;;;;;4980028;28;20101;-82
2022/06/26 00:45:21;;;;;;;15.85;13.82;;;18.00;99.90;;;;;;4975890;28;20720;-81
2022/06/26 00:47:46;;;;;;;16.35;14.20;;;18.00;99.90;;;;;;4953960;28;20089;-81
2022/06/26 00:50:12;;;;;;;15.02;13.15;;;18.00;99.90;;;;;;4957328;28;20046;-81
2022/06/26 00:52:39;;;;;;;19.85;14.75;;;18.00;99.90;;;;;;4977753;28;20055;-81
2022/06/26 00:55:06;;;;;;;17.00;13.95;;;17.90;99.90;;;;;;4961678;28;20054;-81
2022/06/26 00:57:34;;;;;;;17.55;14.52;;;17.90;99.90;;;;;;4973888;28;20057;-82
2022/06/26 01:00:00;;;;;;;17.38;14.52;;;17.90;99.90;;;;;;4979225;28;20050;-81
2022/06/26 01:02:26;;;;;;;16.42;14.27;;;17.90;99.90;;;;;;4978285;28;20865;-81
2022/06/26 01:04:52;;;;;;;19.73;15.70;;;17.90;99.90;;;;;;4975210;28;20054;-81
2022/06/26 01:07:17;;;;;;;17.63;15.80;;;17.80;99.90;;;;;;4960053;28;20093;-81
2022/06/26 01:09:43;;;;;;;18.65;16.00;;;17.80;99.90;;;;;;4959286;28;20042;-81
2022/06/26 01:12:09;;;;;;;16.48;14.70;;;17.80;99.90;;;;;;4968794;28;20050;-81
2022/06/26 01:14:35;;;;;;;18.77;15.55;;;17.90;99.90;;;;;;4959847;28;20474;-81
2022/06/26 01:17:01;;;;;;;16.50;14.38;;;17.80;99.90;;;;;;4955948;28;20101;-81
2022/06/26 01:19:27;;;;;;;16.67;14.27;;;17.80;99.90;;;;;;4942417;28;20500;-82
2022/06/26 01:21:53;;;;;;;17.23;11.93;;;17.80;99.90;;;;;;4966385;28;20497;-83
2022/06/26 01:24:19;;;;;;;19.30;15.32;;;17.80;99.90;;;;;;4958776;28;20069;-82
2022/06/26 01:26:44;;;;;;;18.45;16.20;;;17.80;99.90;;;;;;4978837;28;20041;-82
2022/06/26 01:29:10;;;;;;;18.77;16.05;;;17.80;99.90;;;;;;4979830;28;20050;-81
2022/06/26 01:31:40;;;;;;;16.35;12.45;;;17.90;99.90;;;;;;4977012;28;20112;-83
2022/06/26 01:34:11;;;;;;;18.83;15.90;;;17.90;99.90;;;;;;4959332;28;20140;-81
2022/06/26 01:36:37;;;;;;;19.27;16.17;;;17.90;99.90;;;;;;4959652;28;20124;-82
2022/06/26 01:39:03;;;;;;;19.90;15.65;;;18.00;99.90;;;;;;4976915;28;20050;-82
2022/06/26 01:41:29;;;;;;;17.60;14.57;;;18.00;99.90;;;;;;4972150;28;20051;-82
2022/06/26 01:43:55;;;;;;;19.15;15.40;;;18.00;99.90;;;;;;4978531;28;20050;-83
2022/06/26 01:46:23;;;;;;;17.95;13.90;;;18.10;99.90;;;;;;4961318;28;20059;-82
2022/06/26 01:48:49;;;;;;;17.23;14.75;;;18.10;99.90;;;;;;4967586;28;20513;-82
2022/06/26 01:51:15;;;;;;;18.55;13.27;;;18.10;99.90;;;;;;4964875;28;20046;-82
2022/06/26 01:53:41;;;;;;;16.65;12.73;;;18.10;99.90;;;;;;4977400;28;20057;-82
2022/06/26 01:56:07;;;;;;;18.48;14.80;;;18.10;99.90;;;;;;4942292;28;20141;-82
2022/06/26 01:58:34;;;;;;;15.73;13.48;;;18.10;99.90;;;;;;4959385;28;20059;-82
2022/06/26 02:01:00;;;;;;;14.88;13.07;;;18.10;99.90;;;;;;4960260;28;20848;-82
2022/06/26 02:03:27;;;;;;;17.67;14.45;;;18.10;99.90;;;;;;4975680;28;20371;-81
2022/06/26 02:05:53;;;;;;;16.73;13.07;;;18.10;99.90;;;;;;4966355;28;20612;-82
2022/06/26 02:08:19;;;;;;;15.63;13.00;;;18.10;99.90;;;;;;4957542;28;20057;-81
2022/06/26 02:13:37;;;;;;;16.42;12.77;;;18.20;99.90;;;;;;4978259;28;20049;-82
2022/06/26 02:16:03;;;;;;;15.73;12.55;;;18.20;99.90;;;;;;4980936;28;20101;-82
2022/06/26 02:18:28;;;;;;;16.38;12.65;;;18.30;99.90;;;;;;4961627;28;20055;-82
2022/06/26 02:20:55;;;;;;;18.00;12.40;;;18.20;99.90;;;;;;4974064;28;20039;-82
2022/06/26 02:23:21;;;;;;;16.30;13.02;;;18.20;99.90;;;;;;4964026;28;20050;-82
2022/06/26 02:25:47;;;;;;;22.02;12.38;;;18.20;99.90;;;;;;4964245;28;20124;-82
2022/06/26 02:28:16;;;;;;;18.95;13.57;;;18.20;99.90;;;;;;4981706;28;20042;-81
2022/06/26 02:30:42;;;;;;;17.67;14.43;;;18.10;99.90;;;;;;4963116;28;20070;-82
2022/06/26 02:33:08;;;;;;;16.48;13.68;;;18.10;99.90;;;;;;4981252;28;20038;-82
2022/06/26 02:35:34;;;;;;;22.67;14.27;;;18.20;99.90;;;;;;4960761;28;20046;-82
2022/06/26 02:37:59;;;;;;;21.15;14.20;;;18.40;99.90;;;;;;4957617;28;20509;-83
2022/06/26 02:40:26;;;;;;;21.60;14.38;;;18.20;99.90;;;;;;4981924;28;20230;-83
2022/06/26 02:42:52;;;;;;;18.10;14.63;;;18.20;99.90;;;;;;4961306;28;20769;-83
2022/06/26 02:45:18;;;;;;;34.38;16.75;;;18.10;99.90;;;;;;4963632;28;20233;-82
2022/06/26 02:47:44;;;;;;;19.02;14.68;;;18.10;99.90;;;;;;4963694;28;20050;-83
2022/06/26 02:50:10;;;;;;;18.48;14.30;;;18.10;99.90;;;;;;4980798;28;20058;-85
2022/06/26 02:52:36;;;;;;;24.45;12.00;;;18.10;99.90;;;;;;4963640;28;20127;-83
2022/06/26 02:55:04;;;;;;;12.32;9.60;;;18.20;99.90;;;;;;4961107;28;20160;-84
2022/06/26 02:57:32;;;;;;;17.85;11.23;;;18.00;99.90;;;;;;4981531;28;20595;-84
2022/06/26 02:59:58;;;;;;;15.43;10.23;;;18.00;99.90;;;;;;4957832;28;20054;-84
2022/06/26 03:02:26;;;;;;;13.52;10.20;;;17.80;99.90;;;;;;4963567;28;20089;-84
2022/06/26 03:04:53;;;;;;;13.13;9.80;;;17.80;99.90;;;;;;4976465;28;20047;-85
2022/06/26 03:07:19;;;;;;;12.32;9.10;;;17.80;99.90;;;;;;4968838;28;20309;-84
2022/06/26 03:09:45;;;;;;;13.50;8.15;;;17.80;99.90;;;;;;4975139;28;20046;-84
2022/06/26 03:12:11;;;;;;;11.52;7.57;;;17.70;99.90;;;;;;4940075;28;20047;-84
2022/06/26 03:14:37;;;;;;;12.85;7.43;;;17.70;99.90;;;;;;4962087;28;20057;-84
2022/06/26 03:17:03;;;;;;;14.60;7.43;;;17.60;99.90;;;;;;4975953;28;20046;-84
2022/06/26 03:19:29;;;;;;;9.68;6.38;;;17.60;99.90;;;;;;4954508;28;20070;-84
2022/06/26 03:21:55;;;;;;;8.90;6.63;;;17.50;99.90;;;;;;4967598;28;20125;-84
2022/06/26 03:24:20;;;;;;;9.73;6.15;;;17.50;99.90;;;;;;4956262;28;20068;-84
2022/06/26 03:26:46;;;;;;;8.30;6.00;;;17.50;99.90;;;;;;4972170;28;20066;-84
2022/06/26 03:29:12;;;;;;;9.18;6.20;;;17.50;99.90;;;;;;4973127;28;20060;-84
2022/06/26 03:31:38;;;;;;;18.83;7.25;;;17.50;99.90;;;;;;4961740;28;20050;-84
2022/06/26 03:34:06;;;;;;;8.68;5.53;;;17.40;99.90;;;;;;4959645;28;20132;-84
2022/06/26 03:36:32;;;;;;;12.02;6.30;;;17.40;99.90;;;;;;4960487;28;20120;-84
2022/06/26 03:38:59;;;;;;;9.60;6.50;;;17.40;99.90;;;;;;4961426;28;20062;-84
2022/06/26 03:41:25;;;;;;;9.13;6.13;;;17.50;99.90;;;;;;4960981;28;20057;-83
2022/06/26 03:43:51;;;;;;;9.55;5.82;;;17.40;99.90;;;;;;4962310;28;20489;-84
2022/06/26 03:46:17;;;;;;;10.63;6.00;;;17.40;99.90;;;;;;4975573;28;20065;-83
2022/06/26 03:48:42;;;;;;;10.02;5.68;;;17.40;99.90;;;;;;4952226;28;20051;-84
2022/06/26 03:51:08;;;;;;;9.77;5.55;;;17.20;99.90;;;;;;4978380;28;20121;-85
2022/06/26 03:53:35;;;;;;;8.77;5.57;;;17.30;99.90;;;;;;4978342;28;20046;-84
2022/06/26 03:56:02;;;;;;;7.50;5.03;;;17.30;99.90;;;;;;4958713;28;20820;-84
2022/06/26 03:58:29;;;;;;;11.82;5.60;;;17.30;99.90;;;;;;4954665;28;20042;-83
2022/06/26 04:00:55;;;;;;;9.52;4.82;;;17.30;99.90;;;;;;4962277;28;20050;-83
2022/06/26 04:03:21;;;;;;;9.05;4.93;;;17.20;99.90;;;;;;4976011;28;20776;-84
2022/06/26 04:05:50;;;;;;;8.10;4.68;;;17.30;99.90;;;;;;4972844;28;20054;-84
2022/06/26 04:08:15;;;;;;;5.88;4.68;;;17.10;99.90;;;;;;4960326;28;20050;-84
2022/06/26 04:10:42;;;;;;;6.15;4.30;;;17.20;99.90;;;;;;4973346;28;20789;-84
2022/06/26 04:13:10;;;;;;;6.93;4.10;;;17.20;99.90;;;;;;4973693;28;20684;-84
2022/06/26 04:15:37;;;;;;;7.00;3.92;;;17.20;99.90;;;;;;4970305;28;20383;-84
2022/06/26 04:18:04;;;;;;;5.28;3.75;;;17.20;99.90;;;;;;4970018;28;20237;-84
2022/06/26 04:20:30;;;;;;;7.93;3.97;;;17.20;99.90;;;;;;4955378;28;20043;-85
2022/06/26 04:23:05;;;;;;;6.18;4.07;;;17.20;99.90;;;;;;4979020;28;20050;-84
2022/06/26 04:25:32;;;;;;;6.65;3.97;;;17.20;99.90;;;;;;4977120;28;20777;-84
2022/06/26 04:27:59;;;;;;;6.40;3.65;;;17.20;99.90;;;;;;4963211;28;20125;-84
2022/06/26 04:30:25;;;;;;;6.43;3.35;;;17.10;99.90;;;;;;4962962;28;20129;-84
2022/06/26 04:32:50;;;;;;;7.60;3.75;;;17.10;99.90;;;;;;4962297;28;20050;-84
2022/06/26 04:35:17;;;;;;;4.57;3.13;;;17.10;99.90;;;;;;4958300;28;20469;-84
2022/06/26 04:37:43;;;;;;;7.38;3.70;;;17.10;99.90;;;;;;4978633;28;20975;-84
2022/06/26 04:40:11;;;;;;;4.80;3.10;;;17.20;99.90;;;;;;4962085;28;20054;-84
2022/06/26 04:42:41;;;;;;;6.50;3.10;;;17.20;99.90;;;;;;4972963;28;20143;-83
2022/06/26 04:45:08;;;;;;;6.07;3.20;;;17.30;99.90;;;;;;4976788;28;20058;-84
2022/06/26 04:47:34;;;;;;;5.72;3.30;;;17.20;99.90;;;;;;4979390;28;20082;-84
2022/06/26 04:50:00;;;;;;;4.90;3.42;;;17.20;99.90;;;;;;4958078;28;20137;-84
2022/06/26 04:52:26;;;;;;;8.85;3.63;;;17.20;99.90;;;;;;4951640;28;20150;-84
2022/06/26 04:54:51;;;;;;;6.38;3.58;;;17.30;99.90;;;;;;4977367;28;20132;-84
2022/06/26 04:57:17;;;;;;;5.15;3.50;;;17.20;99.90;;;;;;4955409;28;20038;-84
2022/06/26 04:59:43;;;;;;;6.95;3.70;;;17.20;99.90;;;;;;4976033;28;20121;-83
2022/06/26 05:02:10;;;;;;;6.80;3.35;;;17.20;99.90;;;;;;4960173;28;20062;-81
2022/06/26 05:04:36;;;;;;;5.93;4.07;;;17.20;99.90;;;;;;4977422;28;20104;-81
2022/06/26 05:07:02;;;;;;;5.75;3.38;;;17.20;99.90;;;;;;4976020;28;20042;-81
2022/06/26 05:09:28;;;;;;;5.68;3.50;;;17.20;99.90;;;;;;4975920;28;20045;-81
2022/06/26 05:11:53;;;;;;;6.53;3.60;;;17.20;99.90;;;;;;4977033;28;20050;-81
2022/06/26 05:14:20;;;;;;;7.35;4.15;;;17.10;99.90;;;;;;4975806;28;20075;-81
2022/06/26 05:16:46;;;;;;;5.22;3.92;;;17.30;99.90;;;;;;4953610;28;20043;-81
2022/06/26 05:19:11;;;;;;;5.20;3.47;;;17.30;99.90;;;;;;4956114;28;20051;-81
2022/06/26 05:21:38;;;;;;;5.68;3.90;;;17.30;99.90;;;;;;4956541;28;20042;-81
2022/06/26 05:24:04;;;;;;;5.47;3.83;;;17.50;99.90;;;;;;4956374;28;20082;-81
2022/06/26 05:26:30;;;;;;;7.72;3.97;;;17.50;99.90;;;;;;4955811;28;20042;-81
2022/06/26 05:28:56;;;;;;;5.95;3.92;;;17.60;99.90;;;;;;4947787;28;20051;-82
2022/06/26 05:31:23;;;;;;;6.60;4.00;;;17.80;99.90;;;;;;4973609;28;20093;-81
2022/06/26 05:33:49;;;;;;;6.95;4.20;;;17.80;99.90;;;;;;4977443;28;20053;-81
2022/06/26 05:36:15;;;;;;;7.88;3.85;;;17.80;99.90;;;;;;4953170;28;20081;-85
2022/06/26 05:38:41;;;;;;;5.43;4.25;;;17.80;99.90;;;;;;4953557;28;20050;-86
2022/06/26 05:41:07;;;;;;;6.47;4.60;;;17.90;99.90;;;;;;4977634;28;20081;-86
2022/06/26 05:43:33;;;;;;;9.02;5.20;;;17.90;99.90;;;;;;4960551;28;20589;-85
2022/06/26 05:45:59;;;;;;;8.90;5.18;;;17.90;99.90;;;;;;4960474;28;20112;-85
2022/06/26 05:48:26;;;;;;;7.72;5.35;;;18.00;99.90;;;;;;4976699;28;20046;-84
2022/06/26 05:50:51;;;;;;;8.57;5.55;;;17.90;99.90;;;;;;4979551;28;20624;-85
2022/06/26 05:53:18;;;;;;;7.93;5.72;;;17.80;99.90;;;;;;4975241;28;20046;-88
2022/06/26 05:55:44;;;;;;;9.80;5.47;;;17.90;99.90;;;;;;4959111;28;20054;-86
2022/06/26 05:58:11;;;;;;;7.55;6.05;;;17.90;99.90;;;;;;4975097;28;20839;-86
2022/06/26 06:00:38;;;;;;;9.38;5.93;;;17.90;99.90;;;;;;4961716;28;20043;-86
2022/06/26 06:03:04;;;;;;;9.50;6.38;;;18.10;99.90;;;;;;4978787;28;20050;-84
2022/06/26 06:05:30;;;;;;;8.88;6.80;;;17.90;99.90;;;;;;4978609;28;20042;-85
2022/06/26 06:07:56;;;;;;;10.27;6.43;;;18.00;99.90;;;;;;4977881;28;20042;-85
2022/06/26 06:10:23;;;;;;;9.13;6.97;;;18.10;99.90;;;;;;4971420;28;20039;-86
2022/06/26 06:12:51;;;;;;;16.02;7.63;;;18.00;99.90;;;;;;4959110;28;20066;-85
2022/06/26 06:15:17;;;;;;;12.43;7.57;;;18.20;99.90;;;;;;4980154;28;20080;-85
2022/06/26 06:17:44;;;;;;;9.85;7.88;;;18.20;99.90;;;;;;4963823;28;20045;-85
2022/06/26 06:20:12;;;;;;;9.55;7.85;;;18.20;99.90;;;;;;4978431;28;20829;-82
2022/06/26 06:22:54;;;;;;;11.95;8.63;;;18.30;99.90;;;;;;4956721;28;20054;-83
2022/06/26 06:25:23;;;;;;;12.07;8.63;;;18.30;99.90;;;;;;4980530;28;20082;-84
2022/06/26 06:27:49;;;;;;;12.38;9.23;;;18.40;99.90;;;;;;4975779;28;20046;-82
2022/06/26 06:30:15;;;;;;;12.00;9.40;;;18.50;99.90;;;;;;4958543;28;20046;-87
2022/06/26 06:32:42;;;;;;;13.55;9.88;;;18.60;99.90;;;;;;4964906;28;20113;-85
2022/06/26 06:35:09;;;;;;;12.35;9.45;;;18.70;99.90;;;;;;4953915;28;20475;-85
2022/06/26 06:37:34;;;;;;;16.20;12.23;;;18.80;99.90;;;;;;4960257;28;20078;-83
2022/06/26 06:40:00;;;;;;;17.23;11.77;;;18.90;99.90;;;;;;4961305;28;20077;-83
2022/06/26 06:42:26;;;;;;;14.02;11.52;;;19.00;99.90;;;;;;4979287;28;20477;-85
2022/06/26 06:44:52;;;;;;;16.15;12.93;;;18.90;99.90;;;;;;4974404;28;20046;-83
2022/06/26 06:47:17;;;;;;;16.15;12.68;;;19.10;99.90;;;;;;4960623;28;20046;-84
2022/06/26 06:49:43;;;;;;;16.00;12.48;;;19.10;99.90;;;;;;4960922;28;20056;-84
2022/06/26 06:52:08;;;;;;;16.52;12.82;;;19.10;99.90;;;;;;4978421;28;20050;-84
2022/06/26 06:54:34;;;;;;;17.88;13.80;;;19.20;99.90;;;;;;4971979;28;20052;-82
2022/06/26 06:57:00;;;;;;;17.92;14.32;;;19.30;99.90;;;;;;4955293;28;20480;-83
2022/06/26 06:59:26;;;;;;;17.70;14.70;;;19.20;99.90;;;;;;4955006;28;20046;-83
2022/06/26 07:01:52;;;;;;;16.00;13.93;;;19.30;99.90;;;;;;4979722;28;20158;-82
2022/06/26 07:04:19;;;;;;;19.60;14.30;;;19.20;99.90;;;;;;4963617;28;20046;-82
2022/06/26 07:06:45;;;;;;;19.38;15.82;;;19.20;99.90;;;;;;4960735;28;20050;-83
2022/06/26 07:09:12;;;;;;;20.27;16.05;;;19.10;99.90;;;;;;4980820;28;20096;-84
2022/06/26 07:11:38;;;;;;;18.75;14.73;;;19.00;99.90;;;;;;4973300;28;20747;-82
2022/06/26 07:14:04;;;;;;;15.38;13.60;;;19.10;99.90;;;;;;4955911;28;20042;-82
2022/06/26 07:16:29;;;;;;;20.88;15.65;;;19.00;99.90;;;;;;4955732;28;20050;-82
2022/06/26 07:18:55;;;;;;;19.10;14.75;;;19.10;99.90;;;;;;4960282;28;20046;-81
2022/06/26 07:21:21;;;;;;;18.65;15.45;;;19.10;99.90;;;;;;4980243;28;20038;-83
2022/06/26 07:23:47;;;;;;;20.05;16.15;;;19.20;99.90;;;;;;4980871;28;20145;-82
2022/06/26 07:26:12;;;;;;;20.02;16.98;;;19.30;99.90;;;;;;4974053;28;20540;-82
2022/06/26 07:28:38;;;;;;;22.77;16.63;;;19.40;99.90;;;;;;4963689;28;20052;-83
2022/06/26 07:31:04;;;;;;;20.88;16.65;;;19.60;99.90;;;;;;4956660;28;20053;-83
2022/06/26 07:36:14;;;;;;;19.30;17.20;;;19.90;99.90;;;;;;4960611;28;20054;-83
2022/06/26 07:38:39;;;;;;;21.02;18.20;;;19.80;99.90;;;;;;4962691;28;20054;-82
2022/06/26 07:41:05;;;;;;;18.63;16.35;;;19.90;99.90;;;;;;4979405;28;20100;-82
2022/06/26 07:43:31;;;;;;;19.10;16.85;;;19.90;99.90;;;;;;4973276;28;20492;-90
2022/06/26 07:45:57;;;;;;;20.75;17.13;;;20.00;99.90;;;;;;4976117;28;20050;-86
2022/06/26 07:48:23;;;;;;;20.58;17.90;;;19.80;99.90;;;;;;4979616;28;20708;-85
2022/06/26 07:50:49;;;;;;;19.25;17.17;;;20.00;99.90;;;;;;4971216;28;20495;-87
2022/06/26 07:53:14;;;;;;;19.50;17.02;;;20.10;99.90;;;;;;4978606;28;20161;-84
2022/06/26 07:55:40;;;;;;;20.38;15.77;;;20.40;99.90;;;;;;4975451;28;20088;-85
2022/06/26 07:58:06;;;;;;;16.83;15.02;;;20.60;99.90;;;;;;4980648;28;20049;-85
2022/06/26 08:00:31;;;;;;;19.60;14.27;;;20.70;99.90;;;;;;4975741;28;20053;-84
2022/06/26 08:03:11;;;;;;;18.15;15.55;;;20.90;99.90;;;;;;4980561;28;20115;-84
2022/06/26 08:05:37;;;;;;;17.10;14.48;;;21.10;99.90;;;;;;4944246;28;20113;-84
2022/06/26 08:08:04;;;;;;;18.20;14.80;;;21.30;99.90;;;;;;4976938;28;20054;-84
2022/06/26 08:10:30;;;;;;;19.02;15.15;;;21.40;99.90;;;;;;4972654;28;20639;-84
2022/06/26 08:12:56;;;;;;;16.20;14.60;;;21.50;99.90;;;;;;4979385;28;20129;-84
2022/06/26 08:15:23;;;;;;;16.42;13.05;;;21.60;99.90;;;;;;4955567;28;20137;-84
2022/06/26 08:17:48;;;;;;;15.00;13.43;;;21.70;99.90;;;;;;4974750;28;20042;-85
2022/06/26 08:20:14;;;;;;;17.55;14.57;;;21.60;99.90;;;;;;4962941;28;20931;-84
2022/06/26 08:22:40;;;;;;;16.58;13.18;;;21.60;99.90;;;;;;4979928;28;20425;-84
2022/06/26 08:25:06;;;;;;;13.93;11.77;;;21.50;99.90;;;;;;4978986;28;20034;-82
2022/06/26 08:27:31;;;;;;;14.25;12.48;;;21.40;99.90;;;;;;4956962;28;20836;-82
2022/06/26 08:29:57;;;;;;;15.98;12.50;;;21.40;99.90;;;;;;4959873;28;20050;-81
2022/06/26 08:32:23;;;;;;;13.38;10.85;;;21.40;99.90;;;;;;4953331;28;20053;-83
2022/06/26 08:34:48;;;;;;;12.77;10.75;;;21.50;99.90;;;;;;4978025;28;20050;-83
2022/06/26 08:37:16;;;;;;;10.73;8.95;;;21.50;99.90;;;;;;4979457;28;20065;-85
2022/06/26 08:39:42;;;;;;;12.45;9.18;;;21.50;99.90;;;;;;4961517;28;20042;-84
2022/06/26 08:42:09;;;;;;;11.40;9.60;;;21.40;99.90;;;;;;4973848;28;20556;-84
2022/06/26 08:44:44;;;;;;;9.30;8.27;;;21.40;99.90;;;;;;4958549;28;20057;-84
2022/06/26 08:47:14;;;;;;;9.00;7.57;;;21.20;99.90;;;;;;4956298;28;20046;-86
2022/06/26 08:49:43;;;;;;;9.27;7.40;;;21.20;99.90;;;;;;4969292;28;20661;-82
2022/06/26 08:52:13;;;;;;;10.45;6.53;;;21.10;99.90;;;;;;4979526;28;20088;-82
2022/06/26 08:54:39;;;;;;;10.02;5.80;;;21.10;99.90;;;;;;4979088;28;20709;-82
2022/06/26 08:57:05;;;;;;;9.45;6.18;;;21.40;99.90;;;;;;4979039;28;20034;-81
2022/06/26 08:59:31;;;;;;;9.38;5.50;;;21.60;99.90;;;;;;4979278;28;20539;-82
2022/06/26 09:01:57;;;;;;;9.23;5.32;;;21.80;99.90;;;;;;4973080;28;20051;-81
2022/06/26 09:04:23;;;;;;;6.78;4.60;;;21.90;99.90;;;;;;4974173;28;20117;-82
2022/06/26 09:06:48;;;;;;;5.70;3.65;;;22.00;99.90;;;;;;4953801;28;20050;-82
2022/06/26 09:09:18;;;;;;;7.25;3.90;;;22.00;99.90;;;;;;4957965;28;20053;-82
2022/06/26 09:11:45;;;;;;;7.10;4.82;;;22.20;99.90;;;;;;4953948;28;20771;-82
2022/06/26 09:14:12;;;;;;;5.43;4.00;;;22.40;99.90;;;;;;4979282;28;20046;-82
2022/06/26 09:16:42;;;;;;;7.72;4.55;;;22.40;99.90;;;;;;4979990;28;20043;-88
2022/06/26 09:19:13;;;;;;;7.55;4.20;;;22.40;99.90;;;;;;4953965;28;20050;-85
2022/06/26 09:21:39;;;;;;;6.13;3.75;;;22.50;99.90;;;;;;4978618;28;20038;-85
2022/06/26 09:24:12;;;;;;;7.00;3.92;;;22.30;99.90;;;;;;4961891;28;20455;-86
2022/06/26 09:26:39;;;;;;;6.05;3.30;;;22.10;99.90;;;;;;4961621;28;20756;-86
2022/06/26 09:29:18;;;;;;;7.35;3.80;;;22.00;99.90;;;;;;4970511;28;20057;-81
2022/06/26 09:31:44;;;;;;;5.63;3.38;;;21.90;99.90;;;;;;4957418;28;20042;-80
2022/06/26 09:34:27;;;;;;;5.80;3.42;;;21.80;99.90;;;;;;4953188;28;20046;-80
2022/06/26 09:37:01;;;;;;;6.22;3.50;;;21.80;99.90;;;;;;4958281;28;20482;-81
2022/06/26 09:39:29;;;;;;;5.22;3.00;;;21.80;99.90;;;;;;4976676;28;20807;-80
2022/06/26 09:41:55;;;;;;;5.75;3.00;;;21.90;99.90;;;;;;4976644;28;20398;-81
2022/06/26 09:44:22;;;;;;;5.05;2.88;;;22.00;99.90;;;;;;4959018;28;20112;-81
2022/06/26 09:46:48;;;;;;;7.47;3.35;;;22.10;99.90;;;;;;4978076;28;20050;-80
2022/06/26 09:49:15;;;;;;;5.93;3.40;;;22.20;99.90;;;;;;4958461;28;20058;-80
2022/06/26 09:51:42;;;;;;;4.55;2.75;;;22.30;99.90;;;;;;4957119;28;20569;-81
2022/06/26 09:54:09;;;;;;;9.07;2.78;;;22.40;99.90;;;;;;4959707;28;20061;-82
2022/06/26 09:56:35;;;;;;;5.18;2.72;;;22.50;99.90;;;;;;4971990;28;20692;-81
2022/06/26 09:59:00;;;;;;;4.80;2.47;;;22.60;99.90;;;;;;4978663;28;20042;-80
2022/06/26 10:07:01;;;;;;;4.75;2.03;;;22.70;99.90;;;;;;4975728;28;20078;-80
2022/06/26 10:09:28;;;;;;;6.55;2.90;;;22.60;99.90;;;;;;4961247;28;20220;-81
2022/06/26 10:11:58;;;;;;;5.43;2.50;;;22.70;99.90;;;;;;4961623;28;20050;-80
2022/06/26 10:14:27;;;;;;;4.57;2.78;;;22.60;99.90;;;;;;4975659;28;20153;-82
2022/06/26 10:17:20;;;;;;;6.18;2.75;;;22.70;99.90;;;;;;4970356;28;20050;-80
2022/06/26 10:19:56;;;;;;;6.95;2.80;;;22.60;99.90;;;;;;4973369;28;20046;-80
2022/06/26 10:22:23;;;;;;;5.15;2.45;;;22.70;99.90;;;;;;4979284;28;20124;-82
2022/06/26 10:24:55;;;;;;;6.80;2.50;;;22.60;99.90;;;;;;4960901;28;20053;-80
2022/06/26 10:27:29;;;;;;;4.50;2.30;;;22.70;99.90;;;;;;4959976;28;20125;-81
2022/06/26 10:30:07;;;;;;;;;;;22.70;99.90;;;;;;4952747;28;20047;-81
2022/06/26 10:32:33;;;;;;;3.70;2.17;;;23.00;99.90;;;;;;4953974;28;19996;-81
2022/06/26 10:34:58;;;;;;;4.38;2.70;;;23.30;99.90;;;;;;4955331;28;20050;-81
2022/06/26 10:37:24;;;;;;;6.22;2.65;;;23.50;99.90;;;;;;4962567;28;20145;-81
2022/06/26 10:39:53;;;;;;;6.15;2.45;;;23.50;99.90;;;;;;4973944;28;20721;-80
2022/06/26 10:45:20;;;;;;;3.85;2.20;;;23.40;99.90;;;;;;4961672;28;20062;-81
2022/06/26 10:47:50;;;;;;;5.35;2.58;;;23.40;99.90;;;;;;4960914;28;20733;-81
2022/06/26 10:50:25;;;;;;;4.28;1.80;;;23.40;99.90;;;;;;4976625;28;20073;-80
2022/06/26 10:52:51;;;;;;;3.47;1.98;;;23.30;99.90;;;;;;4958476;28;20061;-80
2022/06/26 10:55:17;;;;;;;4.50;2.35;;;23.30;99.90;;;;;;4961453;28;20165;-80
2022/06/26 10:57:42;;;;;;;5.00;2.13;;;23.20;99.90;;;;;;4979515;28;20038;-80
2022/06/26 11:00:12;;;;;;;3.88;1.92;;;23.20;99.90;;;;;;4964437;28;20161;-80
2022/06/26 11:02:41;;;;;;;4.93;1.80;;;23.20;99.90;;;;;;4962908;28;20054;-80
2022/06/26 11:05:09;;;;;;;3.88;1.90;;;23.20;99.90;;;;;;4955789;28;20060;-81
2022/06/26 11:07:53;;;;;;;5.40;1.80;;;23.20;99.90;;;;;;4961808;28;20183;-81
2022/06/26 11:10:22;;;;;;;4.43;1.70;;;23.30;99.90;;;;;;4957666;28;20062;-82
2022/06/26 11:12:49;;;;;;;6.07;1.90;;;23.40;99.90;;;;;;4959105;28;20109;-81
2022/06/26 11:15:21;;;;;;;3.30;1.52;;;23.40;99.90;;;;;;4976080;28;20572;-82
2022/06/26 11:17:58;;;;;;;4.90;1.95;;;23.50;99.90;;;;;;4962935;28;20236;-82
2022/06/26 11:23:16;;;;;;;4.50;1.85;;;23.60;99.90;;;;;;4980499;28;20051;-82
2022/06/26 11:25:42;;;;;;;3.88;2.10;;;23.80;99.90;;;;;;4963190;28;20766;-83
2022/06/26 11:28:09;;;;;;;5.82;1.90;;;23.90;99.90;;;;;;4958606;28;20057;-82
2022/06/26 11:30:37;;;;;;;5.93;2.35;;;24.00;99.90;;;;;;4959993;28;20187;-81
2022/06/26 11:33:03;;;;;;;3.45;1.80;;;24.00;99.90;;;;;;4978736;28;20111;-84
2022/06/26 11:35:29;;;;;;;4.30;2.10;;;24.10;99.90;;;;;;4975105;28;20042;-82
2022/06/26 11:37:54;;;;;;;5.15;2.10;;;24.10;99.90;;;;;;4981312;28;20046;-84
2022/06/26 11:40:22;;;;;;;6.93;2.65;;;24.00;99.90;;;;;;4972791;28;20162;-84
2022/06/26 11:42:55;;;;;;;5.97;2.40;;;24.00;99.90;;;;;;4959542;28;20125;-83
2022/06/26 11:45:25;;;;;;;5.43;2.40;;;23.90;99.90;;;;;;4980265;28;20065;-83
2022/06/26 11:47:52;;;;;;;5.25;2.17;;;24.00;99.90;;;;;;4977393;28;20042;-82
2022/06/26 11:50:23;;;;;;;5.70;2.25;;;24.10;99.90;;;;;;4959954;28;20058;-80
2022/06/26 11:52:53;;;;;;;7.45;2.50;;;24.20;99.90;;;;;;4955430;28;20139;-81
2022/06/26 11:55:19;;;;;;;4.30;1.80;;;24.20;99.90;;;;;;4954974;28;20223;-80
2022/06/26 11:57:45;;;;;;;5.72;2.22;;;24.30;99.90;;;;;;4974304;28;20795;-80
2022/06/26 12:00:12;;;;;;;5.93;2.05;;;24.40;99.90;;;;;;4976837;28;20038;-80
2022/06/26 12:02:43;;;;;;;4.35;2.10;;;24.30;99.90;;;;;;4957014;28;20058;-80
2022/06/26 12:05:09;;;;;;;4.28;2.00;;;24.30;99.90;;;;;;4971504;28;20042;-81
2022/06/26 12:07:46;;;;;;;6.45;1.77;;;24.40;99.90;;;;;;4952851;28;20050;-83
2022/06/26 12:10:23;;;;;;;3.63;1.70;;;24.50;99.90;;;;;;4953016;28;20042;-85
2022/06/26 12:12:50;;;;;;;3.50;1.83;;;24.50;99.90;;;;;;4954452;28;20159;-85
2022/06/26 12:15:16;;;;;;;3.88;1.67;;;24.50;99.90;;;;;;4954525;28;20058;-84
2022/06/26 12:17:50;;;;;;;6.97;2.10;;;24.60;99.90;;;;;;4977884;28;20038;-89
2022/06/26 12:20:15;;;;;;;3.63;1.70;;;24.60;99.90;;;;;;4957945;28;20081;-86
2022/06/26 12:22:51;;;;;;;4.13;1.90;;;24.60;99.90;;;;;;4961991;28;20794;-87
2022/06/26 12:25:29;;;;;;;4.55;2.10;;;24.50;99.90;;;;;;4984147;28;20046;-87
2022/06/26 12:27:56;;;;;;;4.35;1.65;;;24.40;99.90;;;;;;4960495;28;20061;-85
2022/06/26 12:30:25;;;;;;;4.25;1.85;;;24.40;99.90;;;;;;4978673;28;20127;-88
